createdAt,value
2022-09-21T00:12:43.978Z,96.2
2022-09-21T00:27:14.468Z,100
2022-09-21T00:41:41.428Z,99.6
2022-09-21T00:56:11.425Z,100
2022-09-21T01:10:41.812Z,100
2022-09-21T01:25:10.118Z,100
2022-09-21T01:39:40.596Z,96.2
2022-09-21T01:54:17.022Z,96.8
2022-09-21T02:08:48.936Z,96.4
2022-09-21T02:23:21.008Z,100
2022-09-21T02:37:57.323Z,100
2022-09-21T02:52:19.770Z,96
2022-09-21T03:06:46.546Z,100
2022-09-21T03:21:15.476Z,100
2022-09-21T03:35:44.813Z,100
2022-09-21T03:50:15.692Z,100
2022-09-21T04:04:45.866Z,98.7
2022-09-21T04:19:15.066Z,100
2022-09-21T04:33:45.839Z,100
2022-09-21T04:48:17.468Z,98.8
2022-09-21T05:02:46.783Z,100
2022-09-21T05:17:17.059Z,100
2022-09-21T05:31:44.712Z,100
2022-09-21T05:46:15.711Z,100
2022-09-21T06:00:47.270Z,100
2022-09-21T06:15:17.448Z,100
2022-09-21T06:29:47.561Z,100
2022-09-21T06:44:18.347Z,100
2022-09-21T06:58:46.733Z,100
2022-09-21T07:13:18.245Z,100
2022-09-21T07:27:50.372Z,100
2022-09-21T07:42:28.103Z,100
2022-09-21T07:57:01.911Z,100
2022-09-21T08:11:31.876Z,94.9
2022-09-21T08:26:26.360Z,71.5
2022-09-21T08:41:05.488Z,68.6
2022-09-21T08:55:36.726Z,60.1
2022-09-21T09:10:03.311Z,63.9
2022-09-21T09:24:38.857Z,54.3
2022-09-21T09:39:18.467Z,57.6
2022-09-21T09:53:47.618Z,56.8
2022-09-21T10:08:11.052Z,59.5
2022-09-21T10:22:43.312Z,56.7
2022-09-21T10:37:15.274Z,50.8
2022-09-21T10:51:46.474Z,51.2
2022-09-21T11:06:18.642Z,52
2022-09-21T11:20:48.094Z,49
2022-09-21T11:35:25.669Z,46.9
2022-09-21T11:50:30.484Z,42.9
2022-09-21T12:04:49.215Z,47.4
2022-09-21T12:19:22.642Z,45.6
2022-09-21T12:33:49.471Z,43.7
2022-09-21T12:48:18.455Z,42.3
2022-09-21T13:02:49.247Z,42.2
2022-09-21T13:17:20.124Z,44.9
2022-09-21T13:31:50.240Z,43.7
2022-09-21T13:46:26.486Z,42.2
2022-09-21T14:00:57.510Z,44.3
2022-09-21T14:15:29.981Z,43.3
2022-09-21T14:30:03.335Z,44
2022-09-21T14:44:30.198Z,47.8
2022-09-21T14:58:58.425Z,50.8
2022-09-21T15:13:27.702Z,52.6
2022-09-21T15:27:57.336Z,57.5
2022-09-21T15:42:26.574Z,55.7
2022-09-21T15:56:57.218Z,56.6
2022-09-21T16:11:25.342Z,55.4
2022-09-21T16:25:59.463Z,54.7
2022-09-21T16:40:29.401Z,52.9
2022-09-21T16:55:05.838Z,50.9
2022-09-21T17:09:38.724Z,54
2022-09-21T17:24:02.583Z,55.8
2022-09-21T17:38:30.294Z,56.9
2022-09-21T17:52:59.233Z,59.2
2022-09-21T18:07:27.211Z,63.3
2022-09-21T18:22:01.095Z,65.6
2022-09-21T18:36:32.534Z,68.3
2022-09-21T18:51:00.259Z,69.3
2022-09-21T19:05:27.418Z,71
2022-09-21T19:19:58.372Z,73.6
2022-09-21T19:34:27.037Z,74.5
2022-09-21T19:48:56.016Z,77.4
2022-09-21T20:03:31.921Z,77.7
2022-09-21T20:17:58.165Z,78.7
2022-09-21T20:32:27.896Z,78.9
2022-09-21T20:46:58.613Z,79.3
2022-09-21T21:01:27.588Z,83.7
2022-09-21T21:15:57.342Z,85.2
2022-09-21T21:30:27.141Z,84.7
2022-09-21T21:44:57.839Z,86.9
2022-09-21T21:59:33.939Z,89
2022-09-21T22:14:04.738Z,91.8
2022-09-21T22:28:30.327Z,87.6
2022-09-21T22:43:05.600Z,88.7
2022-09-21T22:57:39.400Z,89.2
2022-09-21T23:12:04.990Z,91.4
2022-09-21T23:26:34.694Z,91.1
2022-09-21T23:41:05.597Z,92.2
2022-09-21T23:55:34.492Z,93
